ETNS

Schleswig Airport

Germany
METAR ETNS 192000Z 27006KT 9999 FEW026 13/09 Q1022 BLU+FCST CANCEL
Observed Flight Rules
Jun-19 @ 20:00 UTC (11 minutes ago) Visual Flight Rules
Wind Visibility Clouds
270° at 6 knots 10,000+ meters
  • Few at 2,600' AGL
Temperatures Readings
Current 13°C / 55°F
Dewpoint 9°C / 48°F
Humidity 77%
Altimeter 30.18" Hg
Pressure 1022 hPa
Elevation 25
METAR ETNS 192000Z 27006KT 9999 FEW026 13/09 Q1022 BLU+FCST CANCEL
Observed Flight Rules
Jun-19 @ 20:00 UTC
(11 minutes ago)
VFR
Wind Visibility
270° at 6 knots 10,000+ meters
Clouds
  • Few at 2,600' AGL
Temperature Dewpoint
13°C / 55°F 9°C / 48°F
Humidity Altimeter Pressure
77% 30.18" Hg 1022 hPa